Jump to content

evgenich31

Members
  • Content Count

    15
  • Joined

  • Last visited

Community Reputation

2 Нейтральная

About evgenich31

  • Rank
    Новичок
  • Birthday 06/10/1986

Дополнительная информация

  • Место в рейтинге
    5486
  • Конфигурация компьютера
    P-II

Profile Information

  • Gender
    Male
  • Location
    UUOB

Recent Profile Visitors

146 profile views
  1. Прошу заранее кирпичами не кидаться, но, что сверхъестественного в посадке Цессны? Ее можно без приборов сажать, с первого полета, просто визуально, с закрылками, без, как угодно, а если там garmin с ap вообще лексус)
  2. А систему нельзя аппаратно вырубить на доске за чашкой? Как АБСУ на небезызвестном ТУ
  3. Странный дрифт 26/02/2019 12:30- METAR UUEE 261230Z 33006MPS 9999 SCT046 01/M00 Q1004 R24L/510357 NOSIG=
×
×
  • Create New...